Meteo Giornale » Osservazioni meteo Romania » Bucarest-Imh
ore: 22:00 - Osservazioni Meteo Bucarest-Imh
Lat. 44° 30' N Lon. 26° 8' E Alt. 90 metri s.l.m.
23 °C
Sereno
Temp. 24 Ore
16 °C
32 °C
Nord
3.7 Km/h
Dew point 15 °C
Umidità 60 %
Visibilità 10 Km
Il sole sorge alle ore 06:38
Il sole tramonta alle ore 19:52
| Data e Ora | Cielo e Fenomeni | T °C | DP °C | Um. % | Pres. hPa | Vis. km | Vento km/h | |
|---|---|---|---|---|---|---|---|---|
| Oggi h: 22:00 | Sereno | 23 | 15 | 60 | 1016 | 10 | N 3.7 | |
| Oggi h: 21:30 | Sereno | 26 | 14 | 47 | 1016 | 10 | N 3.7 | |
| Oggi h: 21:00 | Sereno | 26 | 14 | 47 | 1016 | 10 | N 3.7 | |
| Oggi h: 20:30 | Sereno | 26 | 14 | 47 | 1015 | 10 | N 3.7 | |
| Oggi h: 20:00 | Sereno | 27 | 15 | 47 | 1015 | 10 | NE 7.4 | |
| Oggi h: 19:30 | Sereno | 29 | 14 | 39 | 1015 | 10 | NE 7.4 | |
| Oggi h: 19:00 | Sereno | 31 | 12 | 31 | 1015 | 10 | N 5.5 | |
| Oggi h: 18:30 | Sereno | 32 | 13 | 31 | 1015 | 10 | O/NO 7.4 | |
| Oggi h: 18:00 | Sereno | 32 | 12 | 29 | 1015 | 10 | O/NO 9.3 | |
| Oggi h: 17:30 | Sereno | 32 | 13 | 31 | 1015 | 10 | O 11.1 | |
| Oggi h: 17:00 | Sereno | 32 | 12 | 29 | 1015 | 10 | O/SO 9.3 | |
| Oggi h: 16:30 | Sereno | 32 | 12 | 29 | 1015 | 10 | O 13 | |
| Oggi h: 16:00 | Sereno | 32 | 11 | 27 | 1015 | 10 | SO 9.3 | |
| Oggi h: 15:30 | Sereno | 32 | 11 | 27 | 1016 | 10 | N 3.7 | |
| Oggi h: 15:00 | Sereno | 32 | 11 | 27 | 1016 | 10 | N 5.5 | |
| Oggi h: 14:30 | Sereno | 31 | 11 | 29 | 1016 | 10 | N 5.5 | |
| Oggi h: 14:00 | Sereno | 31 | 10 | 27 | 1016 | 10 | N 5.5 | |
| Oggi h: 13:30 | Sereno | 31 | 10 | 27 | 1016 | 10 | N 5.5 | |
| Oggi h: 13:00 | Sereno | 29 | 9 | 28 | 1016 | 10 | N 5.5 | |
| Oggi h: 12:30 | Sereno | 30 | 9 | 27 | 1016 | 10 | E/NE 7.4 | |
| Oggi h: 12:00 | Sereno | 28 | 10 | 32 | 1017 | 10 | N 5.5 | |
| Oggi h: 11:30 | Sereno | 27 | 9 | 32 | 1017 | 10 | N 7.4 | |
| Oggi h: 11:00 | Sereno | 26 | 13 | 44 | 1017 | 10 | N/NE 9.3 | |
| Oggi h: 10:30 | Sereno | 25 | 14 | 50 | 1017 | 10 | NE 7.4 | |
| Oggi h: 10:00 | Sereno | 24 | 14 | 53 | 1017 | 10 | N 7.4 | |
| Oggi h: 09:30 | Sereno | 22 | 13 | 56 | 1017 | 10 | N/NE 7.4 | |
| Oggi h: 09:00 | Sereno | 20 | 12 | 59 | 1017 | 10 | N 5.5 | |
| Oggi h: 08:30 | Sereno | 19 | 12 | 63 | 1017 | 10 | N 3.7 | |
| Oggi h: 08:00 | Sereno | 18 | 12 | 67 | 1016 | 10 | N 1.8 | |
| Oggi h: 07:30 | Sereno | 17 | 12 | 72 | 1016 | 10 | N 5.5 | |
| Oggi h: 07:00 | Sereno | 16 | 11 | 72 | 1016 | 10 | N/NE 7.4 | |
| Oggi h: 06:30 | Sereno | 16 | 11 | 72 | 1016 | 10 | N 5.5 | |
| Oggi h: 06:00 | Sereno | 16 | 11 | 72 | 1016 | 10 | N 5.5 | |
| Oggi h: 05:30 | Sereno | 16 | 11 | 72 | 1016 | 10 | N 3.7 | |
| Oggi h: 05:00 | Sereno | 17 | 11 | 67 | 1016 | 10 | N 3.7 | |
| Oggi h: 04:30 | Sereno | 17 | 11 | 67 | 1016 | 10 | N 3.7 | |
| Oggi h: 04:00 | Sereno | 17 | 11 | 67 | 1016 | 10 | N 3.7 | |
| Oggi h: 03:30 | Sereno | 18 | 11 | 63 | 1016 | 10 | N 5.5 | |
| Oggi h: 03:00 | Sereno | 18 | 11 | 63 | 1016 | 10 | N 5.5 | |
| Oggi h: 02:30 | Sereno | 18 | 11 | 63 | 1016 | 10 | N 5.5 | |
| Oggi h: 02:00 | Sereno | 19 | 11 | 59 | 1016 | 10 | N/NE 7.4 | |
| Oggi h: 01:30 | Sereno | 19 | 11 | 59 | 1016 | 10 | N 5.5 | |
| Oggi h: 01:00 | Sereno | 21 | 10 | 49 | 1017 | 10 | N 5.5 | |
| Oggi h: 00:30 | Sereno | 20 | 10 | 52 | 1017 | 10 | N 5.5 | |
| Oggi h: 00:00 | Sereno | 21 | 10 | 49 | 1017 | 10 | E/NE 7.4 | |
| Ieri h: 23:30 | Sereno | 23 | 10 | 43 | 1016 | 10 | E 11.1 | |
| Ieri h: 23:00 | Sereno | 25 | 9 | 36 | 1016 | 10 | E/SE 13 | |



